sensor_id;sensor_type;location;lat;lon;timestamp;P1;durP1;ratioP1;P2;durP2;ratioP2
11486;SDS011;10510;47.942;9.442;2022-10-17T00:01:19;3.08;;;1.85;;
11486;SDS011;10510;47.942;9.442;2022-10-17T00:03:19;6.82;;;2.55;;
11486;SDS011;10510;47.942;9.442;2022-10-17T00:05:20;4.85;;;2.70;;
11486;SDS011;10510;47.942;9.442;2022-10-17T00:07:20;9.23;;;2.35;;
11486;SDS011;10510;47.942;9.442;2022-10-17T00:09:21;4.97;;;2.63;;
11486;SDS011;10510;47.942;9.442;2022-10-17T00:11:21;7.13;;;2.20;;
11486;SDS011;10510;47.942;9.442;2022-10-17T00:13:23;9.60;;;2.40;;
11486;SDS011;10510;47.942;9.442;2022-10-17T00:15:23;9.70;;;3.17;;
11486;SDS011;10510;47.942;9.442;2022-10-17T00:17:23;2.72;;;2.10;;
11486;SDS011;10510;47.942;9.442;2022-10-17T00:19:24;7.22;;;2.80;;
11486;SDS011;10510;47.942;9.442;2022-10-17T00:21:24;7.75;;;3.03;;
11486;SDS011;10510;47.942;9.442;2022-10-17T00:23:25;18.33;;;2.97;;
11486;SDS011;10510;47.942;9.442;2022-10-17T00:25:29;3.97;;;2.60;;
11486;SDS011;10510;47.942;9.442;2022-10-17T00:27:29;8.05;;;2.92;;
11486;SDS011;10510;47.942;9.442;2022-10-17T00:29:29;3.50;;;2.75;;
11486;SDS011;10510;47.942;9.442;2022-10-17T00:31:30;5.25;;;2.70;;
11486;SDS011;10510;47.942;9.442;2022-10-17T00:33:31;7.03;;;3.00;;
11486;SDS011;10510;47.942;9.442;2022-10-17T00:35:32;7.22;;;3.08;;
11486;SDS011;10510;47.942;9.442;2022-10-17T00:37:33;9.82;;;2.85;;
11486;SDS011;10510;47.942;9.442;2022-10-17T00:39:33;4.68;;;3.13;;
11486;SDS011;10510;47.942;9.442;2022-10-17T00:41:33;4.93;;;2.78;;
11486;SDS011;10510;47.942;9.442;2022-10-17T00:45:55;4.18;;;2.88;;
11486;SDS011;10510;47.942;9.442;2022-10-17T00:48:00;8.60;;;2.40;;
11486;SDS011;10510;47.942;9.442;2022-10-17T00:50:04;4.63;;;2.67;;
11486;SDS011;10510;47.942;9.442;2022-10-17T00:52:10;4.15;;;3.00;;
11486;SDS011;10510;47.942;9.442;2022-10-17T00:54:16;3.90;;;2.70;;
11486;SDS011;10510;47.942;9.442;2022-10-17T00:56:19;4.13;;;2.85;;
11486;SDS011;10510;47.942;9.442;2022-10-17T00:58:20;5.65;;;2.20;;
11486;SDS011;10510;47.942;9.442;2022-10-17T01:00:20;7.93;;;2.20;;
11486;SDS011;10510;47.942;9.442;2022-10-17T01:02:22;4.82;;;1.83;;
11486;SDS011;10510;47.942;9.442;2022-10-17T01:04:23;14.75;;;1.83;;
11486;SDS011;10510;47.942;9.442;2022-10-17T01:06:23;3.00;;;2.13;;
11486;SDS011;10510;47.942;9.442;2022-10-17T01:08:24;6.05;;;2.00;;
11486;SDS011;10510;47.942;9.442;2022-10-17T01:10:26;5.35;;;1.88;;
11486;SDS011;10510;47.942;9.442;2022-10-17T01:26:49;7.88;;;2.17;;
11486;SDS011;10510;47.942;9.442;2022-10-17T01:29:13;4.90;;;2.65;;
11486;SDS011;10510;47.942;9.442;2022-10-17T01:33:44;5.78;;;2.58;;
11486;SDS011;10510;47.942;9.442;2022-10-17T01:35:51;3.22;;;2.47;;
11486;SDS011;10510;47.942;9.442;2022-10-17T01:40:33;7.20;;;2.25;;
11486;SDS011;10510;47.942;9.442;2022-10-17T01:42:56;4.55;;;2.25;;
11486;SDS011;10510;47.942;9.442;2022-10-17T01:47:06;4.07;;;2.17;;
11486;SDS011;10510;47.942;9.442;2022-10-17T01:49:10;5.10;;;2.03;;
11486;SDS011;10510;47.942;9.442;2022-10-17T01:53:49;3.28;;;2.05;;
11486;SDS011;10510;47.942;9.442;2022-10-17T01:55:54;5.93;;;2.05;;
11486;SDS011;10510;47.942;9.442;2022-10-17T01:57:59;4.68;;;2.15;;
11486;SDS011;10510;47.942;9.442;2022-10-17T02:00:07;7.93;;;2.72;;
11486;SDS011;10510;47.942;9.442;2022-10-17T02:02:12;5.65;;;2.85;;
11486;SDS011;10510;47.942;9.442;2022-10-17T02:04:14;4.40;;;2.50;;
11486;SDS011;10510;47.942;9.442;2022-10-17T02:06:15;9.80;;;2.75;;
11486;SDS011;10510;47.942;9.442;2022-10-17T02:08:23;46.40;;;3.92;;
11486;SDS011;10510;47.942;9.442;2022-10-17T02:19:54;14.73;;;3.47;;
11486;SDS011;10510;47.942;9.442;2022-10-17T02:24:31;4.50;;;2.60;;
11486;SDS011;10510;47.942;9.442;2022-10-17T02:33:13;5.95;;;3.10;;
11486;SDS011;10510;47.942;9.442;2022-10-17T02:35:23;6.65;;;2.95;;
11486;SDS011;10510;47.942;9.442;2022-10-17T02:37:27;4.93;;;3.00;;
11486;SDS011;10510;47.942;9.442;2022-10-17T02:39:30;5.65;;;2.75;;
11486;SDS011;10510;47.942;9.442;2022-10-17T02:41:31;23.85;;;4.15;;
11486;SDS011;10510;47.942;9.442;2022-10-17T02:43:33;6.65;;;2.95;;
11486;SDS011;10510;47.942;9.442;2022-10-17T02:45:35;13.75;;;3.80;;
11486;SDS011;10510;47.942;9.442;2022-10-17T02:47:39;15.52;;;3.80;;
11486;SDS011;10510;47.942;9.442;2022-10-17T02:49:50;41.05;;;4.75;;
11486;SDS011;10510;47.942;9.442;2022-10-17T02:54:04;20.20;;;3.60;;
11486;SDS011;10510;47.942;9.442;2022-10-17T02:56:13;19.60;;;4.55;;
11486;SDS011;10510;47.942;9.442;2022-10-17T02:58:18;23.95;;;5.55;;
11486;SDS011;10510;47.942;9.442;2022-10-17T03:00:22;10.75;;;3.88;;
11486;SDS011;10510;47.942;9.442;2022-10-17T03:02:24;12.65;;;3.83;;
11486;SDS011;10510;47.942;9.442;2022-10-17T03:04:24;11.35;;;3.85;;
11486;SDS011;10510;47.942;9.442;2022-10-17T03:06:25;14.18;;;3.80;;
11486;SDS011;10510;47.942;9.442;2022-10-17T03:08:25;21.52;;;4.40;;
11486;SDS011;10510;47.942;9.442;2022-10-17T03:10:25;5.85;;;3.78;;
11486;SDS011;10510;47.942;9.442;2022-10-17T03:12:26;18.30;;;4.60;;
11486;SDS011;10510;47.942;9.442;2022-10-17T03:14:26;14.18;;;4.25;;
11486;SDS011;10510;47.942;9.442;2022-10-17T03:16:26;6.07;;;3.90;;
11486;SDS011;10510;47.942;9.442;2022-10-17T03:18:26;12.90;;;4.18;;
11486;SDS011;10510;47.942;9.442;2022-10-17T03:20:27;7.05;;;3.80;;
11486;SDS011;10510;47.942;9.442;2022-10-17T03:22:27;5.50;;;3.30;;
11486;SDS011;10510;47.942;9.442;2022-10-17T03:24:28;4.32;;;3.13;;
11486;SDS011;10510;47.942;9.442;2022-10-17T03:26:28;8.02;;;3.42;;
11486;SDS011;10510;47.942;9.442;2022-10-17T03:28:29;4.68;;;2.90;;
11486;SDS011;10510;47.942;9.442;2022-10-17T03:30:29;6.40;;;3.28;;
11486;SDS011;10510;47.942;9.442;2022-10-17T03:32:31;5.28;;;2.70;;
11486;SDS011;10510;47.942;9.442;2022-10-17T03:34:32;4.47;;;2.65;;
11486;SDS011;10510;47.942;9.442;2022-10-17T03:36:33;5.35;;;2.70;;
11486;SDS011;10510;47.942;9.442;2022-10-17T03:38:33;5.88;;;2.92;;
11486;SDS011;10510;47.942;9.442;2022-10-17T03:40:34;5.35;;;2.72;;
11486;SDS011;10510;47.942;9.442;2022-10-17T03:42:34;7.13;;;3.03;;
11486;SDS011;10510;47.942;9.442;2022-10-17T03:44:35;5.30;;;3.30;;
11486;SDS011;10510;47.942;9.442;2022-10-17T03:46:35;5.60;;;3.15;;
11486;SDS011;10510;47.942;9.442;2022-10-17T03:48:35;6.47;;;3.13;;
11486;SDS011;10510;47.942;9.442;2022-10-17T03:50:36;3.60;;;2.90;;
11486;SDS011;10510;47.942;9.442;2022-10-17T03:52:36;3.78;;;2.72;;
11486;SDS011;10510;47.942;9.442;2022-10-17T03:54:36;6.10;;;3.08;;
11486;SDS011;10510;47.942;9.442;2022-10-17T03:56:36;6.35;;;3.20;;
11486;SDS011;10510;47.942;9.442;2022-10-17T03:58:37;3.72;;;2.70;;
11486;SDS011;10510;47.942;9.442;2022-10-17T04:00:37;3.95;;;2.78;;
11486;SDS011;10510;47.942;9.442;2022-10-17T04:02:37;5.78;;;2.72;;
11486;SDS011;10510;47.942;9.442;2022-10-17T04:04:37;7.70;;;3.35;;
11486;SDS011;10510;47.942;9.442;2022-10-17T04:06:38;4.85;;;2.90;;
11486;SDS011;10510;47.942;9.442;2022-10-17T04:08:39;5.03;;;2.97;;
11486;SDS011;10510;47.942;9.442;2022-10-17T04:10:41;9.32;;;3.33;;
11486;SDS011;10510;47.942;9.442;2022-10-17T04:12:41;5.10;;;3.20;;
11486;SDS011;10510;47.942;9.442;2022-10-17T04:14:42;8.13;;;3.20;;
11486;SDS011;10510;47.942;9.442;2022-10-17T04:16:42;9.70;;;3.30;;
11486;SDS011;10510;47.942;9.442;2022-10-17T04:18:43;6.50;;;2.97;;
11486;SDS011;10510;47.942;9.442;2022-10-17T04:20:43;4.47;;;2.92;;
11486;SDS011;10510;47.942;9.442;2022-10-17T04:22:43;8.52;;;3.83;;
11486;SDS011;10510;47.942;9.442;2022-10-17T04:24:44;4.47;;;3.13;;
11486;SDS011;10510;47.942;9.442;2022-10-17T04:26:45;6.90;;;3.15;;
11486;SDS011;10510;47.942;9.442;2022-10-17T04:28:48;5.30;;;3.65;;
11486;SDS011;10510;47.942;9.442;2022-10-17T04:30:58;7.85;;;4.18;;
11486;SDS011;10510;47.942;9.442;2022-10-17T04:33:00;9.23;;;4.13;;
11486;SDS011;10510;47.942;9.442;2022-10-17T04:35:00;4.78;;;3.63;;
11486;SDS011;10510;47.942;9.442;2022-10-17T04:37:00;9.60;;;3.67;;
11486;SDS011;10510;47.942;9.442;2022-10-17T04:39:01;7.60;;;4.30;;
11486;SDS011;10510;47.942;9.442;2022-10-17T04:41:05;7.97;;;4.10;;
11486;SDS011;10510;47.942;9.442;2022-10-17T04:43:07;13.88;;;4.95;;
11486;SDS011;10510;47.942;9.442;2022-10-17T04:45:07;10.18;;;4.13;;
11486;SDS011;10510;47.942;9.442;2022-10-17T04:47:07;10.85;;;4.63;;
11486;SDS011;10510;47.942;9.442;2022-10-17T04:49:08;7.43;;;4.00;;
11486;SDS011;10510;47.942;9.442;2022-10-17T04:51:15;9.05;;;4.13;;
11486;SDS011;10510;47.942;9.442;2022-10-17T04:53:17;8.90;;;4.95;;
11486;SDS011;10510;47.942;9.442;2022-10-17T04:55:17;7.97;;;5.43;;
11486;SDS011;10510;47.942;9.442;2022-10-17T04:57:17;16.13;;;4.90;;
11486;SDS011;10510;47.942;9.442;2022-10-17T04:59:18;10.95;;;5.95;;
11486;SDS011;10510;47.942;9.442;2022-10-17T05:01:19;9.65;;;4.25;;
11486;SDS011;10510;47.942;9.442;2022-10-17T05:03:21;6.68;;;3.70;;
11486;SDS011;10510;47.942;9.442;2022-10-17T05:05:21;10.32;;;4.43;;
11486;SDS011;10510;47.942;9.442;2022-10-17T05:07:22;14.38;;;6.18;;
11486;SDS011;10510;47.942;9.442;2022-10-17T05:09:22;13.98;;;7.78;;
11486;SDS011;10510;47.942;9.442;2022-10-17T05:11:23;15.73;;;7.40;;
11486;SDS011;10510;47.942;9.442;2022-10-17T05:13:25;21.98;;;7.68;;
11486;SDS011;10510;47.942;9.442;2022-10-17T05:15:26;17.98;;;6.82;;
11486;SDS011;10510;47.942;9.442;2022-10-17T05:17:26;18.17;;;6.93;;
11486;SDS011;10510;47.942;9.442;2022-10-17T05:19:26;11.10;;;4.88;;
11486;SDS011;10510;47.942;9.442;2022-10-17T05:21:27;22.95;;;4.90;;
11486;SDS011;10510;47.942;9.442;2022-10-17T05:23:29;39.75;;;5.00;;
11486;SDS011;10510;47.942;9.442;2022-10-17T05:25:29;30.95;;;5.00;;
11486;SDS011;10510;47.942;9.442;2022-10-17T05:27:30;17.77;;;4.70;;
11486;SDS011;10510;47.942;9.442;2022-10-17T05:29:31;6.90;;;4.00;;
11486;SDS011;10510;47.942;9.442;2022-10-17T05:31:31;10.60;;;5.10;;
11486;SDS011;10510;47.942;9.442;2022-10-17T05:33:31;12.60;;;3.97;;
11486;SDS011;10510;47.942;9.442;2022-10-17T05:35:32;16.38;;;5.00;;
11486;SDS011;10510;47.942;9.442;2022-10-17T05:37:33;7.80;;;3.72;;
11486;SDS011;10510;47.942;9.442;2022-10-17T05:39:33;7.15;;;4.13;;
11486;SDS011;10510;47.942;9.442;2022-10-17T05:41:33;9.55;;;5.20;;
11486;SDS011;10510;47.942;9.442;2022-10-17T05:43:34;12.40;;;5.55;;
11486;SDS011;10510;47.942;9.442;2022-10-17T05:45:34;22.60;;;9.68;;
11486;SDS011;10510;47.942;9.442;2022-10-17T05:47:35;14.18;;;7.32;;
11486;SDS011;10510;47.942;9.442;2022-10-17T05:49:35;16.23;;;6.82;;
11486;SDS011;10510;47.942;9.442;2022-10-17T05:51:35;15.63;;;6.55;;
11486;SDS011;10510;47.942;9.442;2022-10-17T05:53:37;16.90;;;6.90;;
11486;SDS011;10510;47.942;9.442;2022-10-17T05:55:38;12.68;;;5.60;;
11486;SDS011;10510;47.942;9.442;2022-10-17T05:57:38;19.65;;;7.65;;
11486;SDS011;10510;47.942;9.442;2022-10-17T05:59:39;15.95;;;6.93;;
11486;SDS011;10510;47.942;9.442;2022-10-17T06:01:39;12.23;;;6.78;;
11486;SDS011;10510;47.942;9.442;2022-10-17T06:03:39;17.83;;;6.50;;
11486;SDS011;10510;47.942;9.442;2022-10-17T06:05:40;14.32;;;6.43;;
11486;SDS011;10510;47.942;9.442;2022-10-17T06:07:40;18.38;;;6.95;;
11486;SDS011;10510;47.942;9.442;2022-10-17T06:09:41;16.20;;;6.95;;
11486;SDS011;10510;47.942;9.442;2022-10-17T06:11:41;19.02;;;7.22;;
11486;SDS011;10510;47.942;9.442;2022-10-17T06:13:41;14.98;;;6.68;;
11486;SDS011;10510;47.942;9.442;2022-10-17T06:15:42;15.02;;;7.32;;
11486;SDS011;10510;47.942;9.442;2022-10-17T06:17:43;11.20;;;6.68;;
11486;SDS011;10510;47.942;9.442;2022-10-17T06:19:43;19.42;;;8.48;;
11486;SDS011;10510;47.942;9.442;2022-10-17T06:21:43;18.60;;;6.88;;
11486;SDS011;10510;47.942;9.442;2022-10-17T06:23:44;25.17;;;6.97;;
11486;SDS011;10510;47.942;9.442;2022-10-17T06:25:44;19.50;;;6.05;;
11486;SDS011;10510;47.942;9.442;2022-10-17T06:27:44;12.95;;;5.70;;
11486;SDS011;10510;47.942;9.442;2022-10-17T06:29:45;19.58;;;5.97;;
11486;SDS011;10510;47.942;9.442;2022-10-17T06:31:46;21.00;;;6.53;;
11486;SDS011;10510;47.942;9.442;2022-10-17T06:33:46;19.70;;;8.73;;
11486;SDS011;10510;47.942;9.442;2022-10-17T06:35:50;11.23;;;6.63;;
11486;SDS011;10510;47.942;9.442;2022-10-17T06:37:54;19.67;;;6.63;;
11486;SDS011;10510;47.942;9.442;2022-10-17T06:39:54;10.02;;;5.95;;
11486;SDS011;10510;47.942;9.442;2022-10-17T06:41:54;18.42;;;6.10;;
11486;SDS011;10510;47.942;9.442;2022-10-17T06:43:55;13.98;;;5.75;;
11486;SDS011;10510;47.942;9.442;2022-10-17T06:45:55;14.38;;;5.90;;
11486;SDS011;10510;47.942;9.442;2022-10-17T06:47:55;12.00;;;5.32;;
11486;SDS011;10510;47.942;9.442;2022-10-17T06:49:55;14.93;;;4.80;;
11486;SDS011;10510;47.942;9.442;2022-10-17T06:51:56;16.48;;;4.47;;
11486;SDS011;10510;47.942;9.442;2022-10-17T06:53:57;6.90;;;3.95;;
11486;SDS011;10510;47.942;9.442;2022-10-17T06:55:57;7.68;;;4.20;;
11486;SDS011;10510;47.942;9.442;2022-10-17T06:58:01;10.55;;;4.15;;
11486;SDS011;10510;47.942;9.442;2022-10-17T07:00:03;13.23;;;4.22;;
11486;SDS011;10510;47.942;9.442;2022-10-17T07:02:03;9.55;;;5.13;;
11486;SDS011;10510;47.942;9.442;2022-10-17T07:04:04;12.18;;;5.75;;
11486;SDS011;10510;47.942;9.442;2022-10-17T07:06:04;10.00;;;5.38;;
11486;SDS011;10510;47.942;9.442;2022-10-17T07:08:05;7.93;;;5.45;;
11486;SDS011;10510;47.942;9.442;2022-10-17T07:10:06;16.75;;;5.28;;
11486;SDS011;10510;47.942;9.442;2022-10-17T07:12:07;10.57;;;5.60;;
11486;SDS011;10510;47.942;9.442;2022-10-17T07:14:07;10.15;;;5.57;;
11486;SDS011;10510;47.942;9.442;2022-10-17T07:16:08;19.75;;;5.70;;
11486;SDS011;10510;47.942;9.442;2022-10-17T07:18:09;9.77;;;5.40;;
11486;SDS011;10510;47.942;9.442;2022-10-17T07:20:09;9.00;;;5.18;;
11486;SDS011;10510;47.942;9.442;2022-10-17T07:22:10;21.02;;;4.88;;
11486;SDS011;10510;47.942;9.442;2022-10-17T07:24:11;8.50;;;4.53;;
11486;SDS011;10510;47.942;9.442;2022-10-17T07:26:13;15.55;;;4.60;;
11486;SDS011;10510;47.942;9.442;2022-10-17T07:28:15;8.68;;;4.18;;
11486;SDS011;10510;47.942;9.442;2022-10-17T07:30:16;10.75;;;4.85;;
11486;SDS011;10510;47.942;9.442;2022-10-17T07:32:17;5.97;;;3.45;;
11486;SDS011;10510;47.942;9.442;2022-10-17T07:34:17;6.65;;;3.50;;
11486;SDS011;10510;47.942;9.442;2022-10-17T07:36:18;11.40;;;3.70;;
11486;SDS011;10510;47.942;9.442;2022-10-17T07:38:18;7.20;;;4.38;;
11486;SDS011;10510;47.942;9.442;2022-10-17T07:40:18;10.15;;;4.28;;
11486;SDS011;10510;47.942;9.442;2022-10-17T07:42:19;6.75;;;2.88;;
11486;SDS011;10510;47.942;9.442;2022-10-17T07:44:19;5.88;;;3.22;;
11486;SDS011;10510;47.942;9.442;2022-10-17T07:46:19;16.20;;;3.83;;
11486;SDS011;10510;47.942;9.442;2022-10-17T07:48:20;13.38;;;3.08;;
11486;SDS011;10510;47.942;9.442;2022-10-17T07:50:22;8.05;;;3.65;;
11486;SDS011;10510;47.942;9.442;2022-10-17T07:52:22;8.80;;;2.97;;
11486;SDS011;10510;47.942;9.442;2022-10-17T07:54:23;5.18;;;2.90;;
11486;SDS011;10510;47.942;9.442;2022-10-17T07:56:23;17.33;;;8.13;;
11486;SDS011;10510;47.942;9.442;2022-10-17T07:58:23;25.52;;;11.55;;
11486;SDS011;10510;47.942;9.442;2022-10-17T08:00:25;5.70;;;2.83;;
11486;SDS011;10510;47.942;9.442;2022-10-17T08:02:26;5.03;;;2.72;;
11486;SDS011;10510;47.942;9.442;2022-10-17T08:04:27;8.02;;;3.17;;
11486;SDS011;10510;47.942;9.442;2022-10-17T08:06:27;9.23;;;4.05;;
11486;SDS011;10510;47.942;9.442;2022-10-17T08:08:28;9.80;;;4.40;;
11486;SDS011;10510;47.942;9.442;2022-10-17T08:10:28;7.80;;;4.30;;
11486;SDS011;10510;47.942;9.442;2022-10-17T08:12:28;21.20;;;4.25;;
11486;SDS011;10510;47.942;9.442;2022-10-17T08:14:31;6.88;;;3.10;;
11486;SDS011;10510;47.942;9.442;2022-10-17T08:16:31;7.05;;;3.13;;
11486;SDS011;10510;47.942;9.442;2022-10-17T08:18:32;7.07;;;3.05;;
11486;SDS011;10510;47.942;9.442;2022-10-17T08:20:33;6.70;;;3.38;;
11486;SDS011;10510;47.942;9.442;2022-10-17T08:22:33;6.13;;;3.20;;
11486;SDS011;10510;47.942;9.442;2022-10-17T08:24:34;6.60;;;3.00;;
11486;SDS011;10510;47.942;9.442;2022-10-17T08:26:34;4.65;;;2.78;;
11486;SDS011;10510;47.942;9.442;2022-10-17T08:28:35;6.57;;;2.97;;
11486;SDS011;10510;47.942;9.442;2022-10-17T08:30:36;7.72;;;3.33;;
11486;SDS011;10510;47.942;9.442;2022-10-17T08:32:37;7.03;;;2.80;;
11486;SDS011;10510;47.942;9.442;2022-10-17T08:34:37;6.65;;;2.88;;
11486;SDS011;10510;47.942;9.442;2022-10-17T08:36:37;11.70;;;4.32;;
11486;SDS011;10510;47.942;9.442;2022-10-17T08:38:37;13.48;;;7.47;;
11486;SDS011;10510;47.942;9.442;2022-10-17T08:40:38;17.25;;;3.63;;
11486;SDS011;10510;47.942;9.442;2022-10-17T08:42:44;6.40;;;3.00;;
11486;SDS011;10510;47.942;9.442;2022-10-17T08:47:33;10.10;;;2.85;;
11486;SDS011;10510;47.942;9.442;2022-10-17T08:49:49;6.80;;;2.90;;
11486;SDS011;10510;47.942;9.442;2022-10-17T08:51:53;8.60;;;5.07;;
11486;SDS011;10510;47.942;9.442;2022-10-17T08:54:12;9.75;;;7.38;;
11486;SDS011;10510;47.942;9.442;2022-10-17T08:56:20;13.68;;;5.93;;
11486;SDS011;10510;47.942;9.442;2022-10-17T08:58:26;9.00;;;6.03;;
11486;SDS011;10510;47.942;9.442;2022-10-17T09:00:28;6.85;;;2.55;;
11486;SDS011;10510;47.942;9.442;2022-10-17T09:12:46;8.63;;;3.58;;
11486;SDS011;10510;47.942;9.442;2022-10-17T09:17:44;5.60;;;2.70;;
11486;SDS011;10510;47.942;9.442;2022-10-17T09:20:03;6.90;;;2.78;;
11486;SDS011;10510;47.942;9.442;2022-10-17T09:22:16;4.88;;;2.45;;
11486;SDS011;10510;47.942;9.442;2022-10-17T09:24:23;8.13;;;2.80;;
11486;SDS011;10510;47.942;9.442;2022-10-17T09:26:47;6.38;;;3.05;;
11486;SDS011;10510;47.942;9.442;2022-10-17T09:28:50;6.40;;;2.42;;
11486;SDS011;10510;47.942;9.442;2022-10-17T09:30:55;3.72;;;2.58;;
11486;SDS011;10510;47.942;9.442;2022-10-17T09:32:59;5.30;;;2.50;;
11486;SDS011;10510;47.942;9.442;2022-10-17T09:35:12;3.33;;;2.20;;
11486;SDS011;10510;47.942;9.442;2022-10-17T09:37:14;9.43;;;2.58;;
11486;SDS011;10510;47.942;9.442;2022-10-17T09:39:17;5.55;;;3.35;;
11486;SDS011;10510;47.942;9.442;2022-10-17T09:41:20;7.30;;;2.80;;
11486;SDS011;10510;47.942;9.442;2022-10-17T09:43:22;7.50;;;3.83;;
11486;SDS011;10510;47.942;9.442;2022-10-17T09:45:24;3.72;;;2.55;;
11486;SDS011;10510;47.942;9.442;2022-10-17T09:47:27;6.18;;;3.72;;
11486;SDS011;10510;47.942;9.442;2022-10-17T09:49:33;7.10;;;3.28;;
11486;SDS011;10510;47.942;9.442;2022-10-17T09:51:36;4.50;;;2.85;;
11486;SDS011;10510;47.942;9.442;2022-10-17T09:53:38;4.57;;;2.30;;
11486;SDS011;10510;47.942;9.442;2022-10-17T09:55:42;8.43;;;2.38;;
11486;SDS011;10510;47.942;9.442;2022-10-17T09:58:03;8.50;;;3.35;;
11486;SDS011;10510;47.942;9.442;2022-10-17T10:00:05;5.10;;;2.38;;
11486;SDS011;10510;47.942;9.442;2022-10-17T10:02:08;4.75;;;2.08;;
11486;SDS011;10510;47.942;9.442;2022-10-17T10:04:15;2.60;;;2.13;;
11486;SDS011;10510;47.942;9.442;2022-10-17T10:06:17;6.28;;;3.65;;
11486;SDS011;10510;47.942;9.442;2022-10-17T10:08:18;8.23;;;3.25;;
11486;SDS011;10510;47.942;9.442;2022-10-17T10:10:23;4.70;;;2.38;;
11486;SDS011;10510;47.942;9.442;2022-10-17T10:12:26;9.55;;;2.97;;
11486;SDS011;10510;47.942;9.442;2022-10-17T10:14:30;3.85;;;2.30;;
11486;SDS011;10510;47.942;9.442;2022-10-17T10:16:33;5.03;;;2.90;;
11486;SDS011;10510;47.942;9.442;2022-10-17T10:18:41;4.78;;;2.22;;
11486;SDS011;10510;47.942;9.442;2022-10-17T10:20:42;6.28;;;2.42;;
11486;SDS011;10510;47.942;9.442;2022-10-17T10:22:52;4.30;;;2.20;;
11486;SDS011;10510;47.942;9.442;2022-10-17T10:25:14;3.42;;;2.13;;
11486;SDS011;10510;47.942;9.442;2022-10-17T10:27:16;5.10;;;1.50;;
11486;SDS011;10510;47.942;9.442;2022-10-17T10:31:26;6.05;;;2.50;;
11486;SDS011;10510;47.942;9.442;2022-10-17T10:33:29;8.52;;;1.88;;
11486;SDS011;10510;47.942;9.442;2022-10-17T10:35:35;3.25;;;1.67;;
11486;SDS011;10510;47.942;9.442;2022-10-17T10:37:37;3.08;;;1.67;;
11486;SDS011;10510;47.942;9.442;2022-10-17T10:44:00;5.32;;;1.88;;
11486;SDS011;10510;47.942;9.442;2022-10-17T10:46:05;4.15;;;1.50;;
11486;SDS011;10510;47.942;9.442;2022-10-17T10:48:23;2.08;;;1.35;;
11486;SDS011;10510;47.942;9.442;2022-10-17T10:52:45;2.20;;;1.45;;
11486;SDS011;10510;47.942;9.442;2022-10-17T10:54:56;7.30;;;1.65;;
11486;SDS011;10510;47.942;9.442;2022-10-17T10:57:03;4.55;;;1.65;;
11486;SDS011;10510;47.942;9.442;2022-10-17T10:59:15;5.20;;;1.58;;
11486;SDS011;10510;47.942;9.442;2022-10-17T11:03:34;1.70;;;1.55;;
11486;SDS011;10510;47.942;9.442;2022-10-17T11:05:42;5.03;;;1.80;;
11486;SDS011;10510;47.942;9.442;2022-10-17T11:07:52;3.58;;;1.85;;
11486;SDS011;10510;47.942;9.442;2022-10-17T11:10:07;5.03;;;2.03;;
11486;SDS011;10510;47.942;9.442;2022-10-17T11:12:17;2.47;;;1.70;;
11486;SDS011;10510;47.942;9.442;2022-10-17T11:14:41;6.38;;;1.90;;
11486;SDS011;10510;47.942;9.442;2022-10-17T11:16:53;4.97;;;1.85;;
11486;SDS011;10510;47.942;9.442;2022-10-17T11:21:42;4.40;;;1.70;;
11486;SDS011;10510;47.942;9.442;2022-10-17T11:26:06;3.38;;;1.70;;
11486;SDS011;10510;47.942;9.442;2022-10-17T11:30:14;5.97;;;2.63;;
11486;SDS011;10510;47.942;9.442;2022-10-17T11:34:35;4.00;;;1.50;;
11486;SDS011;10510;47.942;9.442;2022-10-17T11:36:41;2.60;;;1.75;;
11486;SDS011;10510;47.942;9.442;2022-10-17T11:41:04;5.18;;;1.67;;
11486;SDS011;10510;47.942;9.442;2022-10-17T11:43:16;2.47;;;1.50;;
11486;SDS011;10510;47.942;9.442;2022-10-17T11:45:21;4.43;;;1.80;;
11486;SDS011;10510;47.942;9.442;2022-10-17T11:49:40;2.20;;;1.40;;
11486;SDS011;10510;47.942;9.442;2022-10-17T11:54:06;14.18;;;1.85;;
11486;SDS011;10510;47.942;9.442;2022-10-17T11:56:24;2.88;;;1.20;;
11486;SDS011;10510;47.942;9.442;2022-10-17T11:58:42;5.50;;;1.60;;
11486;SDS011;10510;47.942;9.442;2022-10-17T12:03:03;2.42;;;1.20;;
11486;SDS011;10510;47.942;9.442;2022-10-17T12:06:12;2.00;;;1.42;;
11486;SDS011;10510;47.942;9.442;2022-10-17T12:09:57;1.98;;;1.20;;
11486;SDS011;10510;47.942;9.442;2022-10-17T12:12:28;2.42;;;1.33;;
11486;SDS011;10510;47.942;9.442;2022-10-17T12:16:41;5.40;;;1.42;;
11486;SDS011;10510;47.942;9.442;2022-10-17T12:18:47;4.95;;;1.27;;
11486;SDS011;10510;47.942;9.442;2022-10-17T12:20:56;1.42;;;1.02;;
11486;SDS011;10510;47.942;9.442;2022-10-17T12:25:15;3.45;;;1.30;;
11486;SDS011;10510;47.942;9.442;2022-10-17T12:29:44;3.90;;;1.35;;
11486;SDS011;10510;47.942;9.442;2022-10-17T12:31:45;2.22;;;1.15;;
11486;SDS011;10510;47.942;9.442;2022-10-17T12:33:49;3.83;;;1.48;;
11486;SDS011;10510;47.942;9.442;2022-10-17T12:38:18;1.30;;;1.10;;
11486;SDS011;10510;47.942;9.442;2022-10-17T12:41:07;8.68;;;2.47;;
11486;SDS011;10510;47.942;9.442;2022-10-17T12:42:46;5.32;;;3.55;;
11486;SDS011;10510;47.942;9.442;2022-10-17T12:44:49;2.35;;;1.40;;
11486;SDS011;10510;47.942;9.442;2022-10-17T12:49:18;3.83;;;1.20;;
11486;SDS011;10510;47.942;9.442;2022-10-17T12:51:19;2.88;;;1.30;;
11486;SDS011;10510;47.942;9.442;2022-10-17T12:53:22;1.30;;;1.02;;
11486;SDS011;10510;47.942;9.442;2022-10-17T12:55:27;2.78;;;1.23;;
11486;SDS011;10510;47.942;9.442;2022-10-17T12:57:47;3.00;;;1.20;;
11486;SDS011;10510;47.942;9.442;2022-10-17T12:59:51;5.82;;;1.50;;
11486;SDS011;10510;47.942;9.442;2022-10-17T13:01:52;7.15;;;2.17;;
11486;SDS011;10510;47.942;9.442;2022-10-17T13:03:56;4.85;;;1.40;;
11486;SDS011;10510;47.942;9.442;2022-10-17T13:06:02;1.45;;;1.10;;
11486;SDS011;10510;47.942;9.442;2022-10-17T13:08:06;3.13;;;1.25;;
11486;SDS011;10510;47.942;9.442;2022-10-17T13:10:23;2.33;;;1.40;;
11486;SDS011;10510;47.942;9.442;2022-10-17T13:12:25;4.45;;;1.40;;
11486;SDS011;10510;47.942;9.442;2022-10-17T13:14:26;3.40;;;1.30;;
11486;SDS011;10510;47.942;9.442;2022-10-17T13:18:31;3.60;;;1.38;;
11486;SDS011;10510;47.942;9.442;2022-10-17T13:20:31;2.83;;;1.40;;
11486;SDS011;10510;47.942;9.442;2022-10-17T13:22:32;1.95;;;1.42;;
11486;SDS011;10510;47.942;9.442;2022-10-17T13:24:33;2.05;;;1.58;;
11486;SDS011;10510;47.942;9.442;2022-10-17T13:26:43;2.55;;;1.40;;
11486;SDS011;10510;47.942;9.442;2022-10-17T13:28:45;2.95;;;1.20;;
11486;SDS011;10510;47.942;9.442;2022-10-17T13:31:06;3.58;;;1.80;;
11486;SDS011;10510;47.942;9.442;2022-10-17T13:33:31;4.30;;;1.40;;
11486;SDS011;10510;47.942;9.442;2022-10-17T13:35:38;3.42;;;1.40;;
11486;SDS011;10510;47.942;9.442;2022-10-17T13:37:45;5.32;;;1.92;;
11486;SDS011;10510;47.942;9.442;2022-10-17T13:39:46;7.07;;;1.77;;
11486;SDS011;10510;47.942;9.442;2022-10-17T13:41:47;2.88;;;1.33;;
11486;SDS011;10510;47.942;9.442;2022-10-17T13:43:48;4.85;;;1.60;;
11486;SDS011;10510;47.942;9.442;2022-10-17T13:46:00;7.90;;;2.92;;
11486;SDS011;10510;47.942;9.442;2022-10-17T13:48:05;2.58;;;1.65;;
11486;SDS011;10510;47.942;9.442;2022-10-17T13:50:18;6.28;;;1.80;;
11486;SDS011;10510;47.942;9.442;2022-10-17T13:52:30;6.57;;;2.05;;
11486;SDS011;10510;47.942;9.442;2022-10-17T13:54:31;2.33;;;1.45;;
11486;SDS011;10510;47.942;9.442;2022-10-17T13:56:34;9.25;;;1.63;;
11486;SDS011;10510;47.942;9.442;2022-10-17T13:58:40;2.88;;;1.75;;
11486;SDS011;10510;47.942;9.442;2022-10-17T14:00:43;2.67;;;1.50;;
11486;SDS011;10510;47.942;9.442;2022-10-17T14:02:44;5.82;;;2.05;;
11486;SDS011;10510;47.942;9.442;2022-10-17T14:04:45;4.60;;;1.70;;
11486;SDS011;10510;47.942;9.442;2022-10-17T14:06:45;1.92;;;1.42;;
11486;SDS011;10510;47.942;9.442;2022-10-17T14:10:50;3.63;;;1.50;;